KOPL/OPL METAR and TAF weather

Enter ICAO airport designator
Station Type Date Time Source
KOPL METAR 2019/06/17 14:35 UTC NOAA

KOPL 171435Z AUTO 17008KT 10SM -DZ SCT028 SCT039 BKN100 23/21 A2992 RMK AO2 LTG DSNT SE T02270213


Station Type Date Time Source
KOPL Decoded METAR 2019/06/17 14:35 UTC NOAA

Station name not available
Jun 17, 2019 - 10:35 AM EDT / 2019.06.17 1435 UTC
Wind: from the S (170 degrees) at 9 MPH (8 KT):0
Visibility: 10 mile(s):0
Sky conditions: mostly cloudy
Weather: light drizzle; Lightning observed
Temperature: 72.9 F (22.7 C)
Dew Point: 70.3 F (21.3 C)
Relative Humidity: 91%
Pressure (altimeter): 29.92 in. Hg (1013 hPa)
ob: KOPL 171435Z AUTO 17008KT 10SM -DZ SCT028 SCT039 BKN100 23/21 A2992 RMK AO2 LTG DSNT SE T02270213
cycle: 14

Station Type Date Time Source
KOPL TAF UTC NOAA

Error!

Example: see airport list